sensor_id;sensor_type;location;lat;lon;timestamp;pressure;altitude;pressure_sealevel;temperature
20730;BMP280;10526;50.850;12.928;2023-12-07T00:01:54;97938.94;;;1.31
20730;BMP280;10526;50.850;12.928;2023-12-07T00:06:16;97942.19;;;1.28
20730;BMP280;10526;50.850;12.928;2023-12-07T00:10:38;97942.50;;;1.27
20730;BMP280;10526;50.850;12.928;2023-12-07T00:15:00;97935.75;;;1.26
20730;BMP280;10526;50.850;12.928;2023-12-07T00:19:22;97938.06;;;1.27
20730;BMP280;10526;50.850;12.928;2023-12-07T00:23:44;97937.38;;;1.30
20730;BMP280;10526;50.850;12.928;2023-12-07T00:28:06;97941.44;;;1.28
20730;BMP280;10526;50.850;12.928;2023-12-07T00:32:29;97947.09;;;1.30
20730;BMP280;10526;50.850;12.928;2023-12-07T00:36:50;97942.31;;;1.32
20730;BMP280;10526;50.850;12.928;2023-12-07T00:41:12;97946.03;;;1.31
20730;BMP280;10526;50.850;12.928;2023-12-07T00:45:36;97950.19;;;1.32
20730;BMP280;10526;50.850;12.928;2023-12-07T00:49:58;97944.25;;;1.35
20730;BMP280;10526;50.850;12.928;2023-12-07T00:54:20;97952.56;;;1.37
20730;BMP280;10526;50.850;12.928;2023-12-07T00:58:42;97954.75;;;1.35
20730;BMP280;10526;50.850;12.928;2023-12-07T01:03:04;97967.44;;;1.33
20730;BMP280;10526;50.850;12.928;2023-12-07T01:07:27;97976.84;;;1.34
20730;BMP280;10526;50.850;12.928;2023-12-07T01:11:50;97979.88;;;1.36
20730;BMP280;10526;50.850;12.928;2023-12-07T01:16:12;97984.78;;;1.37
20730;BMP280;10526;50.850;12.928;2023-12-07T01:20:34;97991.56;;;1.38
20730;BMP280;10526;50.850;12.928;2023-12-07T01:24:56;97992.03;;;1.40
20730;BMP280;10526;50.850;12.928;2023-12-07T01:29:19;97995.41;;;1.41
20730;BMP280;10526;50.850;12.928;2023-12-07T01:33:41;98002.19;;;1.42
20730;BMP280;10526;50.850;12.928;2023-12-07T01:38:03;98014.53;;;1.41
20730;BMP280;10526;50.850;12.928;2023-12-07T01:42:26;98011.16;;;1.41
20730;BMP280;10526;50.850;12.928;2023-12-07T01:46:48;98007.44;;;1.42
20730;BMP280;10526;50.850;12.928;2023-12-07T01:51:11;98005.38;;;1.47
20730;BMP280;10526;50.850;12.928;2023-12-07T01:55:33;98007.66;;;1.49
20730;BMP280;10526;50.850;12.928;2023-12-07T01:59:56;98007.66;;;1.49
20730;BMP280;10526;50.850;12.928;2023-12-07T02:04:18;98017.50;;;1.52
20730;BMP280;10526;50.850;12.928;2023-12-07T02:08:41;98013.78;;;1.53
20730;BMP280;10526;50.850;12.928;2023-12-07T02:13:04;98023.50;;;1.53
20730;BMP280;10526;50.850;12.928;2023-12-07T02:22:17;98036.31;;;1.54
20730;BMP280;10526;50.850;12.928;2023-12-07T02:26:39;98043.88;;;1.56
20730;BMP280;10526;50.850;12.928;2023-12-07T02:31:02;98038.72;;;1.59
20730;BMP280;10526;50.850;12.928;2023-12-07T02:35:25;98034.25;;;1.60
20730;BMP280;10526;50.850;12.928;2023-12-07T02:39:48;98043.97;;;1.59
20730;BMP280;10526;50.850;12.928;2023-12-07T02:44:11;98047.03;;;1.61
20730;BMP280;10526;50.850;12.928;2023-12-07T02:48:33;98043.53;;;1.57
20730;BMP280;10526;50.850;12.928;2023-12-07T02:52:56;98047.59;;;1.55
20730;BMP280;10526;50.850;12.928;2023-12-07T02:57:18;98053.59;;;1.55
20730;BMP280;10526;50.850;12.928;2023-12-07T03:01:40;98061.91;;;1.57
20730;BMP280;10526;50.850;12.928;2023-12-07T03:06:03;98055.88;;;1.57
20730;BMP280;10526;50.850;12.928;2023-12-07T03:10:25;98064.97;;;1.59
20730;BMP280;10526;50.850;12.928;2023-12-07T03:14:47;98066.50;;;1.60
20730;BMP280;10526;50.850;12.928;2023-12-07T03:19:09;98061.25;;;1.60
20730;BMP280;10526;50.850;12.928;2023-12-07T03:23:31;98069.56;;;1.62
20730;BMP280;10526;50.850;12.928;2023-12-07T03:27:53;98065.84;;;1.63
20730;BMP280;10526;50.850;12.928;2023-12-07T03:32:15;98074.19;;;1.65
20730;BMP280;10526;50.850;12.928;2023-12-07T03:36:37;98070.47;;;1.66
20730;BMP280;10526;50.850;12.928;2023-12-07T03:41:00;98064.44;;;1.66
20730;BMP280;10526;50.850;12.928;2023-12-07T03:45:23;98066.72;;;1.67
20730;BMP280;10526;50.850;12.928;2023-12-07T03:49:45;98075.06;;;1.69
20730;BMP280;10526;50.850;12.928;2023-12-07T03:54:08;98071.34;;;1.70
20730;BMP280;10526;50.850;12.928;2023-12-07T03:58:30;98085.56;;;1.69
20730;BMP280;10526;50.850;12.928;2023-12-07T04:02:52;98090.13;;;1.72
20730;BMP280;10526;50.850;12.928;2023-12-07T04:07:14;98093.56;;;1.73
20730;BMP280;10526;50.850;12.928;2023-12-07T04:11:36;98091.69;;;1.73
20730;BMP280;10526;50.850;12.928;2023-12-07T04:15:58;98092.75;;;1.72
20730;BMP280;10526;50.850;12.928;2023-12-07T04:20:20;98091.81;;;1.77
20730;BMP280;10526;50.850;12.928;2023-12-07T04:24:43;98098.13;;;1.88
20730;BMP280;10526;50.850;12.928;2023-12-07T04:29:05;98104.38;;;1.84
20730;BMP280;10526;50.850;12.928;2023-12-07T04:33:27;98113.56;;;1.78
20730;BMP280;10526;50.850;12.928;2023-12-07T04:37:50;98121.75;;;1.76
20730;BMP280;10526;50.850;12.928;2023-12-07T04:42:12;98111.59;;;1.75
20730;BMP280;10526;50.850;12.928;2023-12-07T04:46:34;98120.75;;;1.68
20730;BMP280;10526;50.850;12.928;2023-12-07T04:50:57;98121.22;;;1.70
20730;BMP280;10526;50.850;12.928;2023-12-07T04:55:19;98133.69;;;1.73
20730;BMP280;10526;50.850;12.928;2023-12-07T04:59:42;98139.81;;;1.78
20730;BMP280;10526;50.850;12.928;2023-12-07T05:04:09;98140.69;;;1.82
20730;BMP280;10526;50.850;12.928;2023-12-07T05:08:31;98140.06;;;1.85
20730;BMP280;10526;50.850;12.928;2023-12-07T05:12:53;98147.16;;;1.84
20730;BMP280;10526;50.850;12.928;2023-12-07T05:17:15;98147.47;;;1.83
20730;BMP280;10526;50.850;12.928;2023-12-07T05:21:38;98147.81;;;1.81
20730;BMP280;10526;50.850;12.928;2023-12-07T05:26:00;98141.69;;;1.77
20730;BMP280;10526;50.850;12.928;2023-12-07T05:30:22;98145.06;;;1.78
20730;BMP280;10526;50.850;12.928;2023-12-07T05:34:44;98142.31;;;1.74
20730;BMP280;10526;50.850;12.928;2023-12-07T05:39:06;98140.34;;;1.71
20730;BMP280;10526;50.850;12.928;2023-12-07T05:43:29;98140.69;;;1.69
20730;BMP280;10526;50.850;12.928;2023-12-07T05:47:51;98150.72;;;1.67
20730;BMP280;10526;50.850;12.928;2023-12-07T05:52:14;98152.94;;;1.65
20730;BMP280;10526;50.850;12.928;2023-12-07T05:56:35;98158.94;;;1.66
20730;BMP280;10526;50.850;12.928;2023-12-07T06:01:00;98160.78;;;1.65
20730;BMP280;10526;50.850;12.928;2023-12-07T06:05:22;98158.94;;;1.66
20730;BMP280;10526;50.850;12.928;2023-12-07T06:09:44;98163.44;;;1.65
20730;BMP280;10526;50.850;12.928;2023-12-07T06:14:07;98162.63;;;1.65
20730;BMP280;10526;50.850;12.928;2023-12-07T06:18:29;98171.38;;;1.69
20730;BMP280;10526;50.850;12.928;2023-12-07T06:22:52;98171.31;;;1.65
20730;BMP280;10526;50.850;12.928;2023-12-07T06:27:14;98176.53;;;1.65
20730;BMP280;10526;50.850;12.928;2023-12-07T06:31:36;98171.38;;;1.69
20730;BMP280;10526;50.850;12.928;2023-12-07T06:35:58;98177.88;;;1.71
20730;BMP280;10526;50.850;12.928;2023-12-07T06:40:20;98178.31;;;1.73
20730;BMP280;10526;50.850;12.928;2023-12-07T06:44:49;98180.28;;;1.77
20730;BMP280;10526;50.850;12.928;2023-12-07T06:49:11;98193.84;;;1.79
20730;BMP280;10526;50.850;12.928;2023-12-07T06:53:35;98186.19;;;1.73
20730;BMP280;10526;50.850;12.928;2023-12-07T06:57:57;98193.84;;;1.79
20730;BMP280;10526;50.850;12.928;2023-12-07T07:02:19;98187.97;;;1.82
20730;BMP280;10526;50.850;12.928;2023-12-07T07:06:41;98188.41;;;1.84
20730;BMP280;10526;50.850;12.928;2023-12-07T07:11:12;98195.19;;;1.85
20730;BMP280;10526;50.850;12.928;2023-12-07T07:15:36;98199.34;;;1.86
20730;BMP280;10526;50.850;12.928;2023-12-07T07:19:58;98207.44;;;1.93
20730;BMP280;10526;50.850;12.928;2023-12-07T07:24:20;98205.25;;;1.95
20730;BMP280;10526;50.850;12.928;2023-12-07T07:28:43;98208.50;;;1.92
20730;BMP280;10526;50.850;12.928;2023-12-07T07:33:06;98216.63;;;1.87
20730;BMP280;10526;50.850;12.928;2023-12-07T07:37:28;98215.19;;;1.89
20730;BMP280;10526;50.850;12.928;2023-12-07T07:41:53;98209.44;;;1.96
20730;BMP280;10526;50.850;12.928;2023-12-07T07:46:15;98212.06;;;1.96
20730;BMP280;10526;50.850;12.928;2023-12-07T07:50:38;98215.56;;;2.00
20730;BMP280;10526;50.850;12.928;2023-12-07T07:55:01;98203.72;;;2.06
20730;BMP280;10526;50.850;12.928;2023-12-07T07:59:25;98211.84;;;2.13
20730;BMP280;10526;50.850;12.928;2023-12-07T08:03:47;98208.69;;;2.20
20730;BMP280;10526;50.850;12.928;2023-12-07T08:08:10;98211.75;;;2.22
20730;BMP280;10526;50.850;12.928;2023-12-07T08:12:33;98219.63;;;2.22
20730;BMP280;10526;50.850;12.928;2023-12-07T08:16:55;98226.22;;;2.28
20730;BMP280;10526;50.850;12.928;2023-12-07T08:21:23;98220.19;;;2.28
20730;BMP280;10526;50.850;12.928;2023-12-07T08:25:51;98209.56;;;2.24
20730;BMP280;10526;50.850;12.928;2023-12-07T08:30:14;98223.69;;;2.19
20730;BMP280;10526;50.850;12.928;2023-12-07T08:34:36;98225.78;;;2.26
20730;BMP280;10526;50.850;12.928;2023-12-07T08:38:59;98236.81;;;2.32
20730;BMP280;10526;50.850;12.928;2023-12-07T08:43:22;98232.69;;;2.31
20730;BMP280;10526;50.850;12.928;2023-12-07T08:47:45;98244.28;;;2.30
20730;BMP280;10526;50.850;12.928;2023-12-07T08:52:07;98247.34;;;2.32
20730;BMP280;10526;50.850;12.928;2023-12-07T08:56:49;98252.72;;;2.35
20730;BMP280;10526;50.850;12.928;2023-12-07T09:01:11;98253.88;;;2.38
20730;BMP280;10526;50.850;12.928;2023-12-07T09:05:50;98257.53;;;2.45
20730;BMP280;10526;50.850;12.928;2023-12-07T09:10:13;98269.91;;;2.45
20730;BMP280;10526;50.850;12.928;2023-12-07T09:14:35;98268.03;;;2.45
20730;BMP280;10526;50.850;12.928;2023-12-07T09:19:00;98272.09;;;2.43
20730;BMP280;10526;50.850;12.928;2023-12-07T09:23:22;98276.50;;;2.51
20730;BMP280;10526;50.850;12.928;2023-12-07T09:27:45;98278.03;;;2.64
20730;BMP280;10526;50.850;12.928;2023-12-07T09:32:07;98276.91;;;2.78
20730;BMP280;10526;50.850;12.928;2023-12-07T09:36:30;98274.41;;;2.81
20730;BMP280;10526;50.850;12.928;2023-12-07T09:40:55;98266.63;;;2.85
20730;BMP280;10526;50.850;12.928;2023-12-07T09:45:18;98265.41;;;2.94
20730;BMP280;10526;50.850;12.928;2023-12-07T09:49:42;98269.84;;;3.06
20730;BMP280;10526;50.850;12.928;2023-12-07T09:54:04;98258.13;;;3.16
20730;BMP280;10526;50.850;12.928;2023-12-07T09:58:27;98250.75;;;3.21
20730;BMP280;10526;50.850;12.928;2023-12-07T10:03:01;98254.59;;;3.24
20730;BMP280;10526;50.850;12.928;2023-12-07T10:07:57;98257.72;;;3.30
20730;BMP280;10526;50.850;12.928;2023-12-07T10:12:18;98253.56;;;3.29
20730;BMP280;10526;50.850;12.928;2023-12-07T10:16:55;98267.00;;;3.23
20730;BMP280;10526;50.850;12.928;2023-12-07T10:21:32;98261.75;;;3.23
20730;BMP280;10526;50.850;12.928;2023-12-07T10:25:55;98258.66;;;3.21
20730;BMP280;10526;50.850;12.928;2023-12-07T10:30:17;98267.31;;;3.22
20730;BMP280;10526;50.850;12.928;2023-12-07T10:34:42;98259.19;;;3.27
20730;BMP280;10526;50.850;12.928;2023-12-07T10:39:04;98256.84;;;3.38
20730;BMP280;10526;50.850;12.928;2023-12-07T10:43:39;98256.63;;;3.43
20730;BMP280;10526;50.850;12.928;2023-12-07T10:48:08;98261.38;;;3.53
20730;BMP280;10526;50.850;12.928;2023-12-07T10:52:32;98259.84;;;3.52
20730;BMP280;10526;50.850;12.928;2023-12-07T10:56:56;98259.78;;;3.48
20730;BMP280;10526;50.850;12.928;2023-12-07T11:01:25;98257.66;;;3.54
20730;BMP280;10526;50.850;12.928;2023-12-07T11:05:49;98261.16;;;3.58
20730;BMP280;10526;50.850;12.928;2023-12-07T11:10:39;98259.19;;;3.55
20730;BMP280;10526;50.850;12.928;2023-12-07T11:15:06;98256.09;;;3.53
20730;BMP280;10526;50.850;12.928;2023-12-07T11:24:02;98259.94;;;3.56
20730;BMP280;10526;50.850;12.928;2023-12-07T11:28:37;98254.88;;;3.63
20730;BMP280;10526;50.850;12.928;2023-12-07T11:33:03;98252.25;;;3.79
20730;BMP280;10526;50.850;12.928;2023-12-07T11:38:05;98244.97;;;3.88
20730;BMP280;10526;50.850;12.928;2023-12-07T11:42:28;98252.81;;;4.00
20730;BMP280;10526;50.850;12.928;2023-12-07T11:46:51;98249.06;;;4.01
20730;BMP280;10526;50.850;12.928;2023-12-07T11:51:13;98243.31;;;4.11
20730;BMP280;10526;50.850;12.928;2023-12-07T11:55:36;98239.38;;;4.21
20730;BMP280;10526;50.850;12.928;2023-12-07T11:59:58;98243.97;;;4.08
20730;BMP280;10526;50.850;12.928;2023-12-07T12:04:24;98247.53;;;4.00
20730;BMP280;10526;50.850;12.928;2023-12-07T12:08:46;98242.13;;;3.93
20730;BMP280;10526;50.850;12.928;2023-12-07T12:13:08;98235.31;;;3.92
20730;BMP280;10526;50.850;12.928;2023-12-07T12:17:31;98228.66;;;3.98
20730;BMP280;10526;50.850;12.928;2023-12-07T12:21:54;98225.09;;;4.06
20730;BMP280;10526;50.850;12.928;2023-12-07T12:26:17;98219.66;;;4.15
20730;BMP280;10526;50.850;12.928;2023-12-07T12:30:39;98214.66;;;4.10
20730;BMP280;10526;50.850;12.928;2023-12-07T12:35:03;98219.91;;;4.10
20730;BMP280;10526;50.850;12.928;2023-12-07T12:39:30;98219.72;;;4.03
20730;BMP280;10526;50.850;12.928;2023-12-07T12:43:55;98217.28;;;3.94
20730;BMP280;10526;50.850;12.928;2023-12-07T12:48:17;98221.03;;;3.93
20730;BMP280;10526;50.850;12.928;2023-12-07T12:52:40;98223.72;;;3.81
20730;BMP280;10526;50.850;12.928;2023-12-07T12:57:05;98211.47;;;3.72
20730;BMP280;10526;50.850;12.928;2023-12-07T13:01:28;98208.91;;;3.60
20730;BMP280;10526;50.850;12.928;2023-12-07T13:05:51;98217.06;;;3.55
20730;BMP280;10526;50.850;12.928;2023-12-07T13:10:13;98209.44;;;3.50
20730;BMP280;10526;50.850;12.928;2023-12-07T13:14:35;98204.97;;;3.38
20730;BMP280;10526;50.850;12.928;2023-12-07T13:19:00;98209.13;;;3.39
20730;BMP280;10526;50.850;12.928;2023-12-07T13:23:23;98211.22;;;3.34
20730;BMP280;10526;50.850;12.928;2023-12-07T13:27:45;98213.75;;;3.30
20730;BMP280;10526;50.850;12.928;2023-12-07T13:32:07;98222.25;;;3.23
20730;BMP280;10526;50.850;12.928;2023-12-07T13:36:29;98213.91;;;3.21
20730;BMP280;10526;50.850;12.928;2023-12-07T13:40:53;98216.63;;;3.25
20730;BMP280;10526;50.850;12.928;2023-12-07T13:45:15;98209.50;;;3.25
20730;BMP280;10526;50.850;12.928;2023-12-07T13:49:38;98214.53;;;3.31
20730;BMP280;10526;50.850;12.928;2023-12-07T13:54:00;98209.50;;;3.25
20730;BMP280;10526;50.850;12.928;2023-12-07T13:58:22;98213.06;;;3.17
20730;BMP280;10526;50.850;12.928;2023-12-07T14:02:44;98203.09;;;3.11
20730;BMP280;10526;50.850;12.928;2023-12-07T14:07:12;98211.44;;;3.01
20730;BMP280;10526;50.850;12.928;2023-12-07T14:11:35;98194.91;;;3.00
20730;BMP280;10526;50.850;12.928;2023-12-07T14:15:57;98193.81;;;3.01
20730;BMP280;10526;50.850;12.928;2023-12-07T14:20:30;98204.97;;;2.98
20730;BMP280;10526;50.850;12.928;2023-12-07T14:25:12;98197.84;;;2.98
20730;BMP280;10526;50.850;12.928;2023-12-07T14:29:34;98204.56;;;2.96
20730;BMP280;10526;50.850;12.928;2023-12-07T14:33:57;98202.63;;;2.93
20730;BMP280;10526;50.850;12.928;2023-12-07T14:38:19;98200.19;;;2.88
20730;BMP280;10526;50.850;12.928;2023-12-07T14:42:42;98187.28;;;2.83
20730;BMP280;10526;50.850;12.928;2023-12-07T14:47:04;98197.59;;;2.76
20730;BMP280;10526;50.850;12.928;2023-12-07T14:51:26;98195.94;;;2.71
20730;BMP280;10526;50.850;12.928;2023-12-07T14:55:48;98192.78;;;2.65
20730;BMP280;10526;50.850;12.928;2023-12-07T15:00:13;98202.53;;;2.65
20730;BMP280;10526;50.850;12.928;2023-12-07T15:04:35;98206.28;;;2.64
20730;BMP280;10526;50.850;12.928;2023-12-07T15:08:58;98211.00;;;2.58
20730;BMP280;10526;50.850;12.928;2023-12-07T15:13:20;98212.31;;;2.52
20730;BMP280;10526;50.850;12.928;2023-12-07T15:17:43;98201.56;;;2.45
20730;BMP280;10526;50.850;12.928;2023-12-07T15:22:11;98206.81;;;2.33
20730;BMP280;10526;50.850;12.928;2023-12-07T15:26:33;98201.16;;;2.31
20730;BMP280;10526;50.850;12.928;2023-12-07T15:30:55;98196.31;;;2.33
20730;BMP280;10526;50.850;12.928;2023-12-07T15:35:17;98198.16;;;2.32
20730;BMP280;10526;50.850;12.928;2023-12-07T15:39:40;98191.50;;;2.22
20730;BMP280;10526;50.850;12.928;2023-12-07T15:44:03;98190.31;;;2.20
20730;BMP280;10526;50.850;12.928;2023-12-07T15:48:25;98200.69;;;2.16
20730;BMP280;10526;50.850;12.928;2023-12-07T15:52:47;98190.28;;;2.08
20730;BMP280;10526;50.850;12.928;2023-12-07T15:57:09;98182.94;;;2.01
20730;BMP280;10526;50.850;12.928;2023-12-07T16:01:32;98180.53;;;1.96
20730;BMP280;10526;50.850;12.928;2023-12-07T16:05:54;98173.84;;;1.86
20730;BMP280;10526;50.850;12.928;2023-12-07T16:10:17;98186.88;;;1.83
20730;BMP280;10526;50.850;12.928;2023-12-07T16:14:42;98190.13;;;1.80
20730;BMP280;10526;50.850;12.928;2023-12-07T16:19:04;98192.75;;;1.80
20730;BMP280;10526;50.850;12.928;2023-12-07T16:23:26;98211.91;;;1.80
20730;BMP280;10526;50.850;12.928;2023-12-07T16:27:49;98202.19;;;1.81
20730;BMP280;10526;50.850;12.928;2023-12-07T16:32:11;98200.63;;;1.80
20730;BMP280;10526;50.850;12.928;2023-12-07T16:36:33;98200.50;;;1.76
20730;BMP280;10526;50.850;12.928;2023-12-07T16:40:55;98195.13;;;1.72
20730;BMP280;10526;50.850;12.928;2023-12-07T16:45:17;98192.31;;;1.65
20730;BMP280;10526;50.850;12.928;2023-12-07T16:49:40;98209.53;;;1.54
20730;BMP280;10526;50.850;12.928;2023-12-07T16:54:03;98202.47;;;1.46
20730;BMP280;10526;50.850;12.928;2023-12-07T16:58:25;98200.69;;;1.38
20730;BMP280;10526;50.850;12.928;2023-12-07T17:02:52;98201.56;;;1.30
20730;BMP280;10526;50.850;12.928;2023-12-07T17:07:14;98203.28;;;1.26
20730;BMP280;10526;50.850;12.928;2023-12-07T17:11:36;98209.50;;;1.21
20730;BMP280;10526;50.850;12.928;2023-12-07T17:15:58;98212.00;;;1.17
20730;BMP280;10526;50.850;12.928;2023-12-07T17:20:21;98214.19;;;1.15
20730;BMP280;10526;50.850;12.928;2023-12-07T17:24:43;98214.94;;;1.16
20730;BMP280;10526;50.850;12.928;2023-12-07T17:29:05;98224.34;;;1.17
20730;BMP280;10526;50.850;12.928;2023-12-07T17:33:28;98209.69;;;1.16
20730;BMP280;10526;50.850;12.928;2023-12-07T17:37:50;98210.19;;;1.09
20730;BMP280;10526;50.850;12.928;2023-12-07T17:42:12;98209.94;;;1.02
20730;BMP280;10526;50.850;12.928;2023-12-07T17:46:36;98192.22;;;0.99
20730;BMP280;10526;50.850;12.928;2023-12-07T17:51:01;98186.53;;;0.97
20730;BMP280;10526;50.850;12.928;2023-12-07T17:55:23;98195.03;;;0.94
20730;BMP280;10526;50.850;12.928;2023-12-07T17:59:45;98202.13;;;0.93
20730;BMP280;10526;50.850;12.928;2023-12-07T18:04:09;98195.47;;;0.96
20730;BMP280;10526;50.850;12.928;2023-12-07T18:08:31;98187.31;;;0.97
20730;BMP280;10526;50.850;12.928;2023-12-07T18:12:54;98200.06;;;0.99
20730;BMP280;10526;50.850;12.928;2023-12-07T18:17:16;98191.78;;;0.97
20730;BMP280;10526;50.850;12.928;2023-12-07T18:21:42;98184.69;;;0.97
20730;BMP280;10526;50.850;12.928;2023-12-07T18:26:07;98174.06;;;0.94
20730;BMP280;10526;50.850;12.928;2023-12-07T18:30:30;98161.44;;;0.87
20730;BMP280;10526;50.850;12.928;2023-12-07T18:34:53;98165.03;;;0.83
20730;BMP280;10526;50.850;12.928;2023-12-07T18:39:16;98170.13;;;0.79
20730;BMP280;10526;50.850;12.928;2023-12-07T18:43:38;98155.66;;;0.73
20730;BMP280;10526;50.850;12.928;2023-12-07T18:48:00;98154.34;;;0.67
20730;BMP280;10526;50.850;12.928;2023-12-07T18:52:22;98149.16;;;0.58
20730;BMP280;10526;50.850;12.928;2023-12-07T18:56:45;98143.03;;;0.54
20730;BMP280;10526;50.850;12.928;2023-12-07T19:01:08;98138.13;;;0.44
20730;BMP280;10526;50.850;12.928;2023-12-07T19:05:30;98136.97;;;0.33
20730;BMP280;10526;50.850;12.928;2023-12-07T19:09:52;98120.28;;;0.16
20730;BMP280;10526;50.850;12.928;2023-12-07T19:14:14;98104.19;;;-0.03
20730;BMP280;10526;50.850;12.928;2023-12-07T19:18:37;98097.50;;;-0.21
20730;BMP280;10526;50.850;12.928;2023-12-07T19:23:00;98097.97;;;-0.37
20730;BMP280;10526;50.850;12.928;2023-12-07T19:27:22;98091.06;;;-0.50
20730;BMP280;10526;50.850;12.928;2023-12-07T19:31:44;98084.34;;;-0.68
20730;BMP280;10526;50.850;12.928;2023-12-07T19:36:07;98071.47;;;-0.91
20730;BMP280;10526;50.850;12.928;2023-12-07T19:40:29;98069.16;;;-1.01
20730;BMP280;10526;50.850;12.928;2023-12-07T19:44:51;98054.25;;;-1.09
20730;BMP280;10526;50.850;12.928;2023-12-07T19:49:14;98050.72;;;-1.13
20730;BMP280;10526;50.850;12.928;2023-12-07T19:53:36;98048.13;;;-1.13
20730;BMP280;10526;50.850;12.928;2023-12-07T19:57:58;98042.59;;;-1.29
20730;BMP280;10526;50.850;12.928;2023-12-07T20:02:22;98039.81;;;-1.41
20730;BMP280;10526;50.850;12.928;2023-12-07T20:06:45;98038.13;;;-1.46
20730;BMP280;10526;50.850;12.928;2023-12-07T20:11:08;98022.75;;;-1.48
20730;BMP280;10526;50.850;12.928;2023-12-07T20:15:30;98018.44;;;-1.43
20730;BMP280;10526;50.850;12.928;2023-12-07T20:19:52;98020.13;;;-1.39
20730;BMP280;10526;50.850;12.928;2023-12-07T20:24:14;98024.75;;;-1.44
20730;BMP280;10526;50.850;12.928;2023-12-07T20:28:36;98017.97;;;-1.54
20730;BMP280;10526;50.850;12.928;2023-12-07T20:33:00;98002.78;;;-1.52
20730;BMP280;10526;50.850;12.928;2023-12-07T20:37:23;97992.78;;;-1.50
20730;BMP280;10526;50.850;12.928;2023-12-07T20:41:45;97994.78;;;-1.56
20730;BMP280;10526;50.850;12.928;2023-12-07T20:46:08;97996.31;;;-1.63
20730;BMP280;10526;50.850;12.928;2023-12-07T20:50:30;97986.50;;;-1.66
20730;BMP280;10526;50.850;12.928;2023-12-07T20:54:53;97996.94;;;-1.66
20730;BMP280;10526;50.850;12.928;2023-12-07T20:59:15;97988.03;;;-1.74
20730;BMP280;10526;50.850;12.928;2023-12-07T21:03:38;97982.19;;;-1.80
20730;BMP280;10526;50.850;12.928;2023-12-07T21:08:00;97989.19;;;-1.89
20730;BMP280;10526;50.850;12.928;2023-12-07T21:12:22;97993.03;;;-1.95
20730;BMP280;10526;50.850;12.928;2023-12-07T21:16:44;97971.22;;;-2.08
20730;BMP280;10526;50.850;12.928;2023-12-07T21:21:07;97967.22;;;-2.23
20730;BMP280;10526;50.850;12.928;2023-12-07T21:25:29;97972.50;;;-2.36
20730;BMP280;10526;50.850;12.928;2023-12-07T21:29:51;97956.19;;;-2.51
20730;BMP280;10526;50.850;12.928;2023-12-07T21:34:13;97943.00;;;-2.54
20730;BMP280;10526;50.850;12.928;2023-12-07T21:38:36;97937.78;;;-2.54
20730;BMP280;10526;50.850;12.928;2023-12-07T21:42:58;97939.19;;;-2.48
20730;BMP280;10526;50.850;12.928;2023-12-07T21:47:20;97933.81;;;-2.52
20730;BMP280;10526;50.850;12.928;2023-12-07T21:51:43;97927.06;;;-2.61
20730;BMP280;10526;50.850;12.928;2023-12-07T21:56:06;97916.88;;;-2.72
20730;BMP280;10526;50.850;12.928;2023-12-07T22:00:28;97915.47;;;-2.78
20730;BMP280;10526;50.850;12.928;2023-12-07T22:04:49;97914.53;;;-2.82
20730;BMP280;10526;50.850;12.928;2023-12-07T22:09:12;97924.78;;;-2.85
20730;BMP280;10526;50.850;12.928;2023-12-07T22:13:34;97937.78;;;-2.94
20730;BMP280;10526;50.850;12.928;2023-12-07T22:17:56;97933.56;;;-3.04
20730;BMP280;10526;50.850;12.928;2023-12-07T22:22:19;97933.06;;;-3.15
20730;BMP280;10526;50.850;12.928;2023-12-07T22:26:41;97946.66;;;-3.18
20730;BMP280;10526;50.850;12.928;2023-12-07T22:31:03;97940.97;;;-3.20
20730;BMP280;10526;50.850;12.928;2023-12-07T22:35:26;97937.16;;;-3.22
20730;BMP280;10526;50.850;12.928;2023-12-07T22:39:49;97939.06;;;-3.28
20730;BMP280;10526;50.850;12.928;2023-12-07T22:44:12;97927.25;;;-3.34
20730;BMP280;10526;50.850;12.928;2023-12-07T22:48:34;97923.06;;;-3.44
20730;BMP280;10526;50.850;12.928;2023-12-07T22:52:56;97923.94;;;-3.48
20730;BMP280;10526;50.850;12.928;2023-12-07T22:57:19;97915.06;;;-3.47
20730;BMP280;10526;50.850;12.928;2023-12-07T23:01:41;97910.34;;;-3.45
20730;BMP280;10526;50.850;12.928;2023-12-07T23:06:04;97900.03;;;-3.50
20730;BMP280;10526;50.850;12.928;2023-12-07T23:10:26;97885.66;;;-3.48
20730;BMP280;10526;50.850;12.928;2023-12-07T23:14:48;97870.53;;;-3.46
20730;BMP280;10526;50.850;12.928;2023-12-07T23:19:10;97865.38;;;-3.37
20730;BMP280;10526;50.850;12.928;2023-12-07T23:23:33;97869.84;;;-3.29
20730;BMP280;10526;50.850;12.928;2023-12-07T23:27:55;97863.13;;;-3.30
20730;BMP280;10526;50.850;12.928;2023-12-07T23:32:17;97863.53;;;-3.37
20730;BMP280;10526;50.850;12.928;2023-12-07T23:36:39;97856.91;;;-3.43
20730;BMP280;10526;50.850;12.928;2023-12-07T23:41:01;97841.06;;;-3.55
20730;BMP280;10526;50.850;12.928;2023-12-07T23:45:24;97819.88;;;-3.62
20730;BMP280;10526;50.850;12.928;2023-12-07T23:49:46;97806.84;;;-3.71
20730;BMP280;10526;50.850;12.928;2023-12-07T23:54:08;97811.09;;;-3.75
20730;BMP280;10526;50.850;12.928;2023-12-07T23:58:30;97806.94;;;-3.76
